sensor_id;sensor_type;location;lat;lon;timestamp;P1;durP1;ratioP1;P2;durP2;ratioP2
14858;SDS011;7521;51.700;6.874;2023-08-31T00:01:44;9.93;;;4.65;;
14858;SDS011;7521;51.700;6.874;2023-08-31T00:04:51;9.13;;;5.07;;
14858;SDS011;7521;51.700;6.874;2023-08-31T00:07:56;10.17;;;4.00;;
14858;SDS011;7521;51.700;6.874;2023-08-31T00:11:01;7.77;;;3.63;;
14858;SDS011;7521;51.700;6.874;2023-08-31T00:14:06;5.88;;;3.47;;
14858;SDS011;7521;51.700;6.874;2023-08-31T00:17:11;4.60;;;3.55;;
14858;SDS011;7521;51.700;6.874;2023-08-31T00:20:18;7.33;;;4.00;;
14858;SDS011;7521;51.700;6.874;2023-08-31T00:23:23;10.63;;;4.47;;
14858;SDS011;7521;51.700;6.874;2023-08-31T00:26:29;7.63;;;3.90;;
14858;SDS011;7521;51.700;6.874;2023-08-31T00:29:36;7.73;;;4.00;;
14858;SDS011;7521;51.700;6.874;2023-08-31T00:32:43;8.03;;;4.40;;
14858;SDS011;7521;51.700;6.874;2023-08-31T00:35:48;11.30;;;4.10;;
14858;SDS011;7521;51.700;6.874;2023-08-31T00:38:54;7.37;;;4.40;;
14858;SDS011;7521;51.700;6.874;2023-08-31T00:41:59;8.55;;;4.63;;
14858;SDS011;7521;51.700;6.874;2023-08-31T00:45:05;7.83;;;4.27;;
14858;SDS011;7521;51.700;6.874;2023-08-31T00:48:15;5.93;;;3.90;;
14858;SDS011;7521;51.700;6.874;2023-08-31T00:51:24;9.50;;;4.60;;
14858;SDS011;7521;51.700;6.874;2023-08-31T00:54:29;7.83;;;4.17;;
14858;SDS011;7521;51.700;6.874;2023-08-31T00:57:34;8.47;;;4.23;;
14858;SDS011;7521;51.700;6.874;2023-08-31T01:00:42;7.07;;;3.93;;
14858;SDS011;7521;51.700;6.874;2023-08-31T01:13:32;7.23;;;3.93;;
14858;SDS011;7521;51.700;6.874;2023-08-31T01:16:39;5.83;;;3.77;;
14858;SDS011;7521;51.700;6.874;2023-08-31T01:19:52;9.40;;;4.47;;
14858;SDS011;7521;51.700;6.874;2023-08-31T01:23:02;13.97;;;4.10;;
14858;SDS011;7521;51.700;6.874;2023-08-31T01:26:10;7.27;;;4.30;;
14858;SDS011;7521;51.700;6.874;2023-08-31T01:29:16;8.30;;;4.13;;
14858;SDS011;7521;51.700;6.874;2023-08-31T01:32:21;4.60;;;3.95;;
14858;SDS011;7521;51.700;6.874;2023-08-31T01:35:26;7.73;;;4.27;;
14858;SDS011;7521;51.700;6.874;2023-08-31T01:38:32;6.13;;;4.20;;
14858;SDS011;7521;51.700;6.874;2023-08-31T01:41:39;7.80;;;4.30;;
14858;SDS011;7521;51.700;6.874;2023-08-31T01:44:45;5.50;;;4.23;;
14858;SDS011;7521;51.700;6.874;2023-08-31T01:47:53;9.30;;;4.47;;
14858;SDS011;7521;51.700;6.874;2023-08-31T01:50:58;6.88;;;4.80;;
14858;SDS011;7521;51.700;6.874;2023-08-31T01:54:06;6.77;;;4.20;;
14858;SDS011;7521;51.700;6.874;2023-08-31T01:57:11;6.47;;;4.87;;
14858;SDS011;7521;51.700;6.874;2023-08-31T02:00:17;6.70;;;4.55;;
14858;SDS011;7521;51.700;6.874;2023-08-31T02:03:22;9.60;;;4.87;;
14858;SDS011;7521;51.700;6.874;2023-08-31T02:06:27;8.73;;;5.82;;
14858;SDS011;7521;51.700;6.874;2023-08-31T02:09:33;6.78;;;5.35;;
14858;SDS011;7521;51.700;6.874;2023-08-31T02:12:38;8.23;;;5.90;;
14858;SDS011;7521;51.700;6.874;2023-08-31T02:15:43;8.10;;;5.77;;
14858;SDS011;7521;51.700;6.874;2023-08-31T02:18:48;6.20;;;5.17;;
14858;SDS011;7521;51.700;6.874;2023-08-31T02:21:54;6.97;;;5.33;;
14858;SDS011;7521;51.700;6.874;2023-08-31T02:24:59;8.07;;;5.78;;
14858;SDS011;7521;51.700;6.874;2023-08-31T02:28:06;6.23;;;5.63;;
14858;SDS011;7521;51.700;6.874;2023-08-31T02:31:13;9.53;;;6.00;;
14858;SDS011;7521;51.700;6.874;2023-08-31T02:34:18;9.43;;;5.93;;
14858;SDS011;7521;51.700;6.874;2023-08-31T02:37:23;6.63;;;5.93;;
14858;SDS011;7521;51.700;6.874;2023-08-31T02:40:29;9.27;;;7.10;;
14858;SDS011;7521;51.700;6.874;2023-08-31T02:43:34;10.17;;;7.10;;
14858;SDS011;7521;51.700;6.874;2023-08-31T02:46:39;12.43;;;7.50;;
14858;SDS011;7521;51.700;6.874;2023-08-31T02:49:44;9.02;;;7.18;;
14858;SDS011;7521;51.700;6.874;2023-08-31T02:52:50;9.07;;;7.43;;
14858;SDS011;7521;51.700;6.874;2023-08-31T02:55:55;8.02;;;7.03;;
14858;SDS011;7521;51.700;6.874;2023-08-31T02:59:00;7.83;;;6.97;;
14858;SDS011;7521;51.700;6.874;2023-08-31T03:02:05;8.68;;;7.60;;
14858;SDS011;7521;51.700;6.874;2023-08-31T03:05:13;12.33;;;8.47;;
14858;SDS011;7521;51.700;6.874;2023-08-31T03:08:19;11.95;;;8.45;;
14858;SDS011;7521;51.700;6.874;2023-08-31T03:11:24;11.70;;;8.00;;
14858;SDS011;7521;51.700;6.874;2023-08-31T03:14:29;11.35;;;8.20;;
14858;SDS011;7521;51.700;6.874;2023-08-31T03:17:34;11.15;;;8.88;;
14858;SDS011;7521;51.700;6.874;2023-08-31T03:20:39;13.20;;;8.77;;
14858;SDS011;7521;51.700;6.874;2023-08-31T03:23:44;10.13;;;9.02;;
14858;SDS011;7521;51.700;6.874;2023-08-31T03:26:50;13.32;;;9.38;;
14858;SDS011;7521;51.700;6.874;2023-08-31T03:29:55;13.32;;;9.75;;
14858;SDS011;7521;51.700;6.874;2023-08-31T03:33:00;11.40;;;9.45;;
14858;SDS011;7521;51.700;6.874;2023-08-31T03:36:05;12.52;;;10.35;;
14858;SDS011;7521;51.700;6.874;2023-08-31T03:39:10;12.97;;;10.37;;
14858;SDS011;7521;51.700;6.874;2023-08-31T03:42:15;12.63;;;10.20;;
14858;SDS011;7521;51.700;6.874;2023-08-31T03:45:21;10.90;;;9.77;;
14858;SDS011;7521;51.700;6.874;2023-08-31T03:48:26;13.43;;;10.98;;
14858;SDS011;7521;51.700;6.874;2023-08-31T03:51:31;11.60;;;9.53;;
14858;SDS011;7521;51.700;6.874;2023-08-31T03:54:36;14.02;;;10.38;;
14858;SDS011;7521;51.700;6.874;2023-08-31T03:57:41;15.40;;;10.75;;
14858;SDS011;7521;51.700;6.874;2023-08-31T04:00:49;14.38;;;11.00;;
14858;SDS011;7521;51.700;6.874;2023-08-31T04:03:55;12.07;;;10.60;;
14858;SDS011;7521;51.700;6.874;2023-08-31T04:07:01;14.83;;;10.97;;
14858;SDS011;7521;51.700;6.874;2023-08-31T04:10:06;16.42;;;11.00;;
14858;SDS011;7521;51.700;6.874;2023-08-31T04:13:11;11.33;;;9.90;;
14858;SDS011;7521;51.700;6.874;2023-08-31T04:16:17;11.35;;;10.20;;
14858;SDS011;7521;51.700;6.874;2023-08-31T04:19:22;12.82;;;9.60;;
14858;SDS011;7521;51.700;6.874;2023-08-31T04:22:27;12.73;;;11.10;;
14858;SDS011;7521;51.700;6.874;2023-08-31T04:25:32;14.57;;;11.48;;
14858;SDS011;7521;51.700;6.874;2023-08-31T04:28:41;17.33;;;11.20;;
14858;SDS011;7521;51.700;6.874;2023-08-31T04:31:47;15.60;;;11.60;;
14858;SDS011;7521;51.700;6.874;2023-08-31T04:34:52;14.10;;;10.57;;
14858;SDS011;7521;51.700;6.874;2023-08-31T04:37:58;16.23;;;11.93;;
14858;SDS011;7521;51.700;6.874;2023-08-31T04:41:03;15.43;;;11.70;;
14858;SDS011;7521;51.700;6.874;2023-08-31T04:44:08;15.00;;;12.33;;
14858;SDS011;7521;51.700;6.874;2023-08-31T04:47:13;14.83;;;12.07;;
14858;SDS011;7521;51.700;6.874;2023-08-31T04:50:19;14.60;;;13.00;;
14858;SDS011;7521;51.700;6.874;2023-08-31T04:53:24;16.07;;;12.60;;
14858;SDS011;7521;51.700;6.874;2023-08-31T04:56:30;15.27;;;12.70;;
14858;SDS011;7521;51.700;6.874;2023-08-31T04:59:37;17.33;;;13.63;;
14858;SDS011;7521;51.700;6.874;2023-08-31T05:02:42;18.67;;;14.38;;
14858;SDS011;7521;51.700;6.874;2023-08-31T05:05:48;19.83;;;17.30;;
14858;SDS011;7521;51.700;6.874;2023-08-31T05:08:53;16.73;;;14.38;;
14858;SDS011;7521;51.700;6.874;2023-08-31T05:11:58;18.13;;;16.20;;
14858;SDS011;7521;51.700;6.874;2023-08-31T05:15:04;20.90;;;17.93;;
14858;SDS011;7521;51.700;6.874;2023-08-31T05:18:10;24.43;;;18.43;;
14858;SDS011;7521;51.700;6.874;2023-08-31T05:21:15;23.47;;;19.23;;
14858;SDS011;7521;51.700;6.874;2023-08-31T05:24:20;24.13;;;19.30;;
14858;SDS011;7521;51.700;6.874;2023-08-31T05:27:26;22.25;;;19.80;;
14858;SDS011;7521;51.700;6.874;2023-08-31T05:30:31;24.43;;;18.30;;
14858;SDS011;7521;51.700;6.874;2023-08-31T05:33:36;22.00;;;18.90;;
14858;SDS011;7521;51.700;6.874;2023-08-31T05:36:41;20.17;;;18.07;;
14858;SDS011;7521;51.700;6.874;2023-08-31T05:39:50;18.83;;;17.02;;
14858;SDS011;7521;51.700;6.874;2023-08-31T05:42:55;19.67;;;17.43;;
14858;SDS011;7521;51.700;6.874;2023-08-31T05:46:00;20.08;;;16.95;;
14858;SDS011;7521;51.700;6.874;2023-08-31T05:49:06;20.47;;;16.17;;
14858;SDS011;7521;51.700;6.874;2023-08-31T05:52:12;18.17;;;16.13;;
14858;SDS011;7521;51.700;6.874;2023-08-31T05:55:17;16.33;;;14.60;;
14858;SDS011;7521;51.700;6.874;2023-08-31T05:58:22;16.88;;;15.18;;
14858;SDS011;7521;51.700;6.874;2023-08-31T06:01:28;15.70;;;14.07;;
14858;SDS011;7521;51.700;6.874;2023-08-31T06:04:33;15.45;;;13.80;;
14858;SDS011;7521;51.700;6.874;2023-08-31T06:07:41;16.30;;;14.43;;
14858;SDS011;7521;51.700;6.874;2023-08-31T06:10:46;15.25;;;13.55;;
14858;SDS011;7521;51.700;6.874;2023-08-31T06:13:51;20.70;;;14.05;;
14858;SDS011;7521;51.700;6.874;2023-08-31T06:16:56;14.45;;;12.95;;
14858;SDS011;7521;51.700;6.874;2023-08-31T06:20:01;15.93;;;13.73;;
14858;SDS011;7521;51.700;6.874;2023-08-31T06:23:10;16.57;;;13.87;;
14858;SDS011;7521;51.700;6.874;2023-08-31T06:26:15;17.17;;;15.48;;
14858;SDS011;7521;51.700;6.874;2023-08-31T06:29:20;17.30;;;14.80;;
14858;SDS011;7521;51.700;6.874;2023-08-31T06:32:25;18.67;;;14.35;;
14858;SDS011;7521;51.700;6.874;2023-08-31T06:35:32;17.53;;;14.17;;
14858;SDS011;7521;51.700;6.874;2023-08-31T06:38:37;13.80;;;12.45;;
14858;SDS011;7521;51.700;6.874;2023-08-31T06:41:42;13.48;;;11.05;;
14858;SDS011;7521;51.700;6.874;2023-08-31T06:44:48;13.30;;;10.10;;
14858;SDS011;7521;51.700;6.874;2023-08-31T06:47:53;10.73;;;9.70;;
14858;SDS011;7521;51.700;6.874;2023-08-31T06:50:58;9.90;;;8.90;;
14858;SDS011;7521;51.700;6.874;2023-08-31T06:54:03;11.60;;;9.05;;
14858;SDS011;7521;51.700;6.874;2023-08-31T06:57:11;10.10;;;8.40;;
14858;SDS011;7521;51.700;6.874;2023-08-31T07:00:17;11.27;;;8.20;;
14858;SDS011;7521;51.700;6.874;2023-08-31T07:03:23;12.57;;;8.17;;
14858;SDS011;7521;51.700;6.874;2023-08-31T07:06:28;8.70;;;7.20;;
14858;SDS011;7521;51.700;6.874;2023-08-31T07:09:34;9.40;;;6.70;;
14858;SDS011;7521;51.700;6.874;2023-08-31T07:12:39;8.07;;;6.67;;
14858;SDS011;7521;51.700;6.874;2023-08-31T07:15:44;7.83;;;6.63;;
14858;SDS011;7521;51.700;6.874;2023-08-31T07:18:49;12.33;;;6.67;;
14858;SDS011;7521;51.700;6.874;2023-08-31T07:21:54;7.93;;;5.83;;
14858;SDS011;7521;51.700;6.874;2023-08-31T07:25:00;7.68;;;5.78;;
14858;SDS011;7521;51.700;6.874;2023-08-31T07:28:05;12.20;;;6.77;;
14858;SDS011;7521;51.700;6.874;2023-08-31T07:31:10;8.80;;;6.07;;
14858;SDS011;7521;51.700;6.874;2023-08-31T07:34:15;9.33;;;6.60;;
14858;SDS011;7521;51.700;6.874;2023-08-31T07:37:20;6.20;;;5.55;;
14858;SDS011;7521;51.700;6.874;2023-08-31T07:40:28;9.90;;;6.13;;
14858;SDS011;7521;51.700;6.874;2023-08-31T07:43:33;7.82;;;5.63;;
14858;SDS011;7521;51.700;6.874;2023-08-31T07:46:38;8.05;;;5.85;;
14858;SDS011;7521;51.700;6.874;2023-08-31T07:49:44;9.73;;;5.47;;
14858;SDS011;7521;51.700;6.874;2023-08-31T07:52:49;7.97;;;4.97;;
14858;SDS011;7521;51.700;6.874;2023-08-31T07:55:55;6.57;;;4.72;;
14858;SDS011;7521;51.700;6.874;2023-08-31T07:59:01;7.43;;;5.00;;
14858;SDS011;7521;51.700;6.874;2023-08-31T08:02:06;7.50;;;4.80;;
14858;SDS011;7521;51.700;6.874;2023-08-31T08:05:12;8.40;;;4.77;;
14858;SDS011;7521;51.700;6.874;2023-08-31T08:08:17;5.33;;;4.77;;
14858;SDS011;7521;51.700;6.874;2023-08-31T08:11:22;8.77;;;4.43;;
14858;SDS011;7521;51.700;6.874;2023-08-31T08:14:28;5.43;;;4.10;;
14858;SDS011;7521;51.700;6.874;2023-08-31T08:17:33;5.20;;;3.80;;
14858;SDS011;7521;51.700;6.874;2023-08-31T08:20:38;5.03;;;3.70;;
14858;SDS011;7521;51.700;6.874;2023-08-31T08:23:43;4.70;;;3.43;;
14858;SDS011;7521;51.700;6.874;2023-08-31T08:26:49;6.45;;;3.78;;
14858;SDS011;7521;51.700;6.874;2023-08-31T08:29:54;9.73;;;3.83;;
14858;SDS011;7521;51.700;6.874;2023-08-31T08:32:59;4.93;;;3.57;;
14858;SDS011;7521;51.700;6.874;2023-08-31T08:36:05;7.60;;;3.77;;
14858;SDS011;7521;51.700;6.874;2023-08-31T08:39:10;5.33;;;3.57;;
14858;SDS011;7521;51.700;6.874;2023-08-31T08:42:15;5.38;;;3.28;;
14858;SDS011;7521;51.700;6.874;2023-08-31T08:45:23;5.43;;;3.60;;
14858;SDS011;7521;51.700;6.874;2023-08-31T08:48:29;4.67;;;3.27;;
14858;SDS011;7521;51.700;6.874;2023-08-31T08:51:34;6.77;;;3.63;;
14858;SDS011;7521;51.700;6.874;2023-08-31T08:54:39;6.45;;;3.47;;
14858;SDS011;7521;51.700;6.874;2023-08-31T08:57:45;6.73;;;3.47;;
14858;SDS011;7521;51.700;6.874;2023-08-31T09:00:50;8.30;;;5.97;;
14858;SDS011;7521;51.700;6.874;2023-08-31T09:03:55;8.10;;;5.17;;
14858;SDS011;7521;51.700;6.874;2023-08-31T09:07:00;10.63;;;5.13;;
14858;SDS011;7521;51.700;6.874;2023-08-31T09:10:06;6.05;;;2.95;;
14858;SDS011;7521;51.700;6.874;2023-08-31T09:13:12;4.87;;;3.30;;
14858;SDS011;7521;51.700;6.874;2023-08-31T09:16:27;3.50;;;2.83;;
14858;SDS011;7521;51.700;6.874;2023-08-31T09:19:33;4.83;;;3.17;;
14858;SDS011;7521;51.700;6.874;2023-08-31T09:22:41;6.57;;;3.50;;
14858;SDS011;7521;51.700;6.874;2023-08-31T09:25:47;7.67;;;3.47;;
14858;SDS011;7521;51.700;6.874;2023-08-31T09:28:58;4.47;;;3.10;;
14858;SDS011;7521;51.700;6.874;2023-08-31T09:32:03;5.53;;;3.33;;
14858;SDS011;7521;51.700;6.874;2023-08-31T09:35:08;4.50;;;3.13;;
14858;SDS011;7521;51.700;6.874;2023-08-31T09:38:14;8.00;;;3.40;;
14858;SDS011;7521;51.700;6.874;2023-08-31T09:41:19;7.47;;;3.50;;
14858;SDS011;7521;51.700;6.874;2023-08-31T09:44:24;8.13;;;3.33;;
14858;SDS011;7521;51.700;6.874;2023-08-31T09:47:30;6.27;;;3.30;;
14858;SDS011;7521;51.700;6.874;2023-08-31T09:50:35;7.63;;;3.17;;
14858;SDS011;7521;51.700;6.874;2023-08-31T09:53:41;9.33;;;3.40;;
14858;SDS011;7521;51.700;6.874;2023-08-31T09:56:47;3.83;;;2.47;;
14858;SDS011;7521;51.700;6.874;2023-08-31T09:59:52;5.90;;;3.00;;
14858;SDS011;7521;51.700;6.874;2023-08-31T10:03:02;3.50;;;2.30;;
14858;SDS011;7521;51.700;6.874;2023-08-31T10:06:07;4.40;;;2.17;;
14858;SDS011;7521;51.700;6.874;2023-08-31T10:09:13;3.37;;;2.00;;
14858;SDS011;7521;51.700;6.874;2023-08-31T10:12:18;3.63;;;2.17;;
14858;SDS011;7521;51.700;6.874;2023-08-31T10:15:24;3.50;;;2.20;;
14858;SDS011;7521;51.700;6.874;2023-08-31T10:18:31;7.07;;;2.10;;
14858;SDS011;7521;51.700;6.874;2023-08-31T10:21:40;5.00;;;2.13;;
14858;SDS011;7521;51.700;6.874;2023-08-31T10:24:58;4.63;;;2.27;;
14858;SDS011;7521;51.700;6.874;2023-08-31T10:28:16;6.93;;;2.43;;
14858;SDS011;7521;51.700;6.874;2023-08-31T10:31:21;6.13;;;2.63;;
14858;SDS011;7521;51.700;6.874;2023-08-31T10:34:35;5.90;;;2.63;;
14858;SDS011;7521;51.700;6.874;2023-08-31T10:37:42;5.73;;;2.70;;
14858;SDS011;7521;51.700;6.874;2023-08-31T10:41:00;5.80;;;3.00;;
14858;SDS011;7521;51.700;6.874;2023-08-31T10:44:19;6.73;;;2.70;;
14858;SDS011;7521;51.700;6.874;2023-08-31T10:47:36;4.60;;;2.90;;
14858;SDS011;7521;51.700;6.874;2023-08-31T10:50:41;5.50;;;2.97;;
14858;SDS011;7521;51.700;6.874;2023-08-31T10:53:47;4.37;;;2.77;;
14858;SDS011;7521;51.700;6.874;2023-08-31T11:00:00;6.20;;;2.87;;
14858;SDS011;7521;51.700;6.874;2023-08-31T11:03:05;7.27;;;2.50;;
14858;SDS011;7521;51.700;6.874;2023-08-31T11:06:11;4.97;;;2.47;;
14858;SDS011;7521;51.700;6.874;2023-08-31T11:09:18;4.80;;;2.17;;
14858;SDS011;7521;51.700;6.874;2023-08-31T11:12:23;5.10;;;2.10;;
14858;SDS011;7521;51.700;6.874;2023-08-31T11:15:29;4.53;;;2.10;;
14858;SDS011;7521;51.700;6.874;2023-08-31T11:18:37;6.13;;;2.20;;
14858;SDS011;7521;51.700;6.874;2023-08-31T11:21:42;2.90;;;1.60;;
14858;SDS011;7521;51.700;6.874;2023-08-31T11:24:47;5.70;;;2.23;;
14858;SDS011;7521;51.700;6.874;2023-08-31T11:27:55;6.72;;;2.17;;
14858;SDS011;7521;51.700;6.874;2023-08-31T11:31:01;3.77;;;2.00;;
14858;SDS011;7521;51.700;6.874;2023-08-31T11:34:06;6.07;;;1.75;;
14858;SDS011;7521;51.700;6.874;2023-08-31T11:37:12;4.70;;;2.00;;
14858;SDS011;7521;51.700;6.874;2023-08-31T11:40:20;4.40;;;1.80;;
14858;SDS011;7521;51.700;6.874;2023-08-31T11:43:26;3.78;;;1.85;;
14858;SDS011;7521;51.700;6.874;2023-08-31T11:46:31;3.50;;;1.63;;
14858;SDS011;7521;51.700;6.874;2023-08-31T11:49:36;4.43;;;1.67;;
14858;SDS011;7521;51.700;6.874;2023-08-31T11:52:42;3.53;;;1.60;;
14858;SDS011;7521;51.700;6.874;2023-08-31T11:55:51;5.17;;;2.20;;
14858;SDS011;7521;51.700;6.874;2023-08-31T11:58:56;3.90;;;1.43;;
14858;SDS011;7521;51.700;6.874;2023-08-31T12:02:02;8.20;;;1.67;;
14858;SDS011;7521;51.700;6.874;2023-08-31T12:05:09;3.77;;;2.03;;
14858;SDS011;7521;51.700;6.874;2023-08-31T12:08:15;3.97;;;1.97;;
14858;SDS011;7521;51.700;6.874;2023-08-31T12:11:20;4.90;;;1.77;;
14858;SDS011;7521;51.700;6.874;2023-08-31T12:14:26;2.73;;;1.77;;
14858;SDS011;7521;51.700;6.874;2023-08-31T12:17:31;3.60;;;1.97;;
14858;SDS011;7521;51.700;6.874;2023-08-31T12:20:44;3.97;;;1.70;;
14858;SDS011;7521;51.700;6.874;2023-08-31T12:23:49;4.83;;;1.87;;
14858;SDS011;7521;51.700;6.874;2023-08-31T12:26:54;5.63;;;2.08;;
14858;SDS011;7521;51.700;6.874;2023-08-31T12:30:00;2.90;;;1.20;;
14858;SDS011;7521;51.700;6.874;2023-08-31T12:33:05;3.60;;;1.30;;
14858;SDS011;7521;51.700;6.874;2023-08-31T12:36:10;3.13;;;2.00;;
14858;SDS011;7521;51.700;6.874;2023-08-31T12:39:15;5.70;;;1.77;;
14858;SDS011;7521;51.700;6.874;2023-08-31T12:42:21;7.00;;;1.83;;
14858;SDS011;7521;51.700;6.874;2023-08-31T12:45:26;2.78;;;1.85;;
14858;SDS011;7521;51.700;6.874;2023-08-31T12:48:32;3.47;;;1.50;;
14858;SDS011;7521;51.700;6.874;2023-08-31T12:51:37;4.07;;;1.60;;
14858;SDS011;7521;51.700;6.874;2023-08-31T12:54:42;4.40;;;1.90;;
14858;SDS011;7521;51.700;6.874;2023-08-31T12:57:48;5.93;;;2.10;;
14858;SDS011;7521;51.700;6.874;2023-08-31T13:00:53;4.67;;;1.60;;
14858;SDS011;7521;51.700;6.874;2023-08-31T13:03:58;3.90;;;1.50;;
14858;SDS011;7521;51.700;6.874;2023-08-31T13:07:03;4.20;;;1.27;;
14858;SDS011;7521;51.700;6.874;2023-08-31T13:10:10;2.73;;;1.50;;
14858;SDS011;7521;51.700;6.874;2023-08-31T13:13:15;2.70;;;1.20;;
14858;SDS011;7521;51.700;6.874;2023-08-31T13:16:20;2.40;;;1.10;;
14858;SDS011;7521;51.700;6.874;2023-08-31T13:19:29;3.77;;;1.53;;
14858;SDS011;7521;51.700;6.874;2023-08-31T13:22:34;3.38;;;1.70;;
14858;SDS011;7521;51.700;6.874;2023-08-31T13:25:39;5.93;;;1.80;;
14858;SDS011;7521;51.700;6.874;2023-08-31T13:28:44;1.95;;;1.40;;
14858;SDS011;7521;51.700;6.874;2023-08-31T13:31:50;3.45;;;1.08;;
14858;SDS011;7521;51.700;6.874;2023-08-31T13:34:55;3.30;;;0.70;;
14858;SDS011;7521;51.700;6.874;2023-08-31T13:38:01;1.00;;;0.70;;
14858;SDS011;7521;51.700;6.874;2023-08-31T13:41:06;1.17;;;0.80;;
14858;SDS011;7521;51.700;6.874;2023-08-31T13:44:13;1.43;;;0.97;;
14858;SDS011;7521;51.700;6.874;2023-08-31T13:47:18;2.10;;;0.90;;
14858;SDS011;7521;51.700;6.874;2023-08-31T13:50:24;2.25;;;1.15;;
14858;SDS011;7521;51.700;6.874;2023-08-31T13:53:29;3.20;;;1.10;;
14858;SDS011;7521;51.700;6.874;2023-08-31T13:56:35;3.57;;;1.50;;
14858;SDS011;7521;51.700;6.874;2023-08-31T13:59:40;2.15;;;1.20;;
14858;SDS011;7521;51.700;6.874;2023-08-31T14:02:45;5.50;;;1.97;;
14858;SDS011;7521;51.700;6.874;2023-08-31T14:05:51;2.33;;;1.40;;
14858;SDS011;7521;51.700;6.874;2023-08-31T14:08:56;2.10;;;1.77;;
14858;SDS011;7521;51.700;6.874;2023-08-31T14:12:01;3.58;;;2.70;;
14858;SDS011;7521;51.700;6.874;2023-08-31T14:15:06;5.00;;;3.00;;
14858;SDS011;7521;51.700;6.874;2023-08-31T14:18:12;4.93;;;2.40;;
14858;SDS011;7521;51.700;6.874;2023-08-31T14:21:17;3.90;;;2.60;;
14858;SDS011;7521;51.700;6.874;2023-08-31T14:24:23;2.88;;;2.15;;
14858;SDS011;7521;51.700;6.874;2023-08-31T14:27:28;3.87;;;2.60;;
14858;SDS011;7521;51.700;6.874;2023-08-31T14:30:35;4.60;;;2.57;;
14858;SDS011;7521;51.700;6.874;2023-08-31T14:33:40;4.63;;;2.67;;
14858;SDS011;7521;51.700;6.874;2023-08-31T14:36:46;4.47;;;2.50;;
14858;SDS011;7521;51.700;6.874;2023-08-31T14:39:51;4.10;;;2.03;;
14858;SDS011;7521;51.700;6.874;2023-08-31T14:42:56;6.57;;;3.35;;
14858;SDS011;7521;51.700;6.874;2023-08-31T14:46:01;5.82;;;3.47;;
14858;SDS011;7521;51.700;6.874;2023-08-31T14:49:06;4.00;;;2.63;;
14858;SDS011;7521;51.700;6.874;2023-08-31T14:52:11;3.78;;;2.38;;
14858;SDS011;7521;51.700;6.874;2023-08-31T14:55:17;2.53;;;2.07;;
14858;SDS011;7521;51.700;6.874;2023-08-31T14:58:22;5.30;;;2.53;;
14858;SDS011;7521;51.700;6.874;2023-08-31T15:01:28;3.17;;;2.40;;
14858;SDS011;7521;51.700;6.874;2023-08-31T15:04:34;5.40;;;3.10;;
14858;SDS011;7521;51.700;6.874;2023-08-31T15:07:39;4.10;;;2.77;;
14858;SDS011;7521;51.700;6.874;2023-08-31T15:10:44;4.03;;;2.65;;
14858;SDS011;7521;51.700;6.874;2023-08-31T15:13:49;3.58;;;2.60;;
14858;SDS011;7521;51.700;6.874;2023-08-31T15:16:54;4.03;;;2.72;;
14858;SDS011;7521;51.700;6.874;2023-08-31T15:19:59;3.38;;;2.33;;
14858;SDS011;7521;51.700;6.874;2023-08-31T15:23:05;3.50;;;2.13;;
14858;SDS011;7521;51.700;6.874;2023-08-31T15:26:10;4.00;;;2.27;;
14858;SDS011;7521;51.700;6.874;2023-08-31T15:29:18;6.00;;;2.63;;
14858;SDS011;7521;51.700;6.874;2023-08-31T15:32:23;5.28;;;2.60;;
14858;SDS011;7521;51.700;6.874;2023-08-31T15:35:28;3.45;;;2.28;;
14858;SDS011;7521;51.700;6.874;2023-08-31T15:38:34;4.30;;;2.50;;
14858;SDS011;7521;51.700;6.874;2023-08-31T15:41:39;3.17;;;2.77;;
14858;SDS011;7521;51.700;6.874;2023-08-31T15:44:44;5.53;;;2.70;;
14858;SDS011;7521;51.700;6.874;2023-08-31T15:47:50;4.07;;;2.60;;
14858;SDS011;7521;51.700;6.874;2023-08-31T15:50:55;3.40;;;2.35;;
14858;SDS011;7521;51.700;6.874;2023-08-31T15:54:00;4.80;;;2.93;;
14858;SDS011;7521;51.700;6.874;2023-08-31T15:57:09;5.73;;;3.30;;
14858;SDS011;7521;51.700;6.874;2023-08-31T16:00:15;5.13;;;2.83;;
14858;SDS011;7521;51.700;6.874;2023-08-31T16:03:21;4.30;;;2.97;;
14858;SDS011;7521;51.700;6.874;2023-08-31T16:06:26;6.03;;;3.60;;
14858;SDS011;7521;51.700;6.874;2023-08-31T16:09:32;4.90;;;3.13;;
14858;SDS011;7521;51.700;6.874;2023-08-31T16:12:37;4.10;;;2.70;;
14858;SDS011;7521;51.700;6.874;2023-08-31T16:15:45;4.13;;;3.20;;
14858;SDS011;7521;51.700;6.874;2023-08-31T16:18:54;3.30;;;2.77;;
14858;SDS011;7521;51.700;6.874;2023-08-31T16:22:00;3.90;;;3.03;;
14858;SDS011;7521;51.700;6.874;2023-08-31T16:25:05;3.90;;;2.63;;
14858;SDS011;7521;51.700;6.874;2023-08-31T16:28:10;4.13;;;2.80;;
14858;SDS011;7521;51.700;6.874;2023-08-31T16:31:15;5.70;;;2.97;;
14858;SDS011;7521;51.700;6.874;2023-08-31T16:34:21;5.27;;;3.20;;
14858;SDS011;7521;51.700;6.874;2023-08-31T16:37:26;3.50;;;2.77;;
14858;SDS011;7521;51.700;6.874;2023-08-31T16:40:31;6.57;;;3.20;;
14858;SDS011;7521;51.700;6.874;2023-08-31T16:43:36;3.35;;;2.50;;
14858;SDS011;7521;51.700;6.874;2023-08-31T16:46:42;8.87;;;3.23;;
14858;SDS011;7521;51.700;6.874;2023-08-31T16:49:47;5.82;;;2.40;;
14858;SDS011;7521;51.700;6.874;2023-08-31T16:52:52;5.33;;;2.97;;
14858;SDS011;7521;51.700;6.874;2023-08-31T16:55:57;3.03;;;2.42;;
14858;SDS011;7521;51.700;6.874;2023-08-31T16:59:04;3.33;;;2.70;;
14858;SDS011;7521;51.700;6.874;2023-08-31T17:02:09;4.93;;;2.70;;
14858;SDS011;7521;51.700;6.874;2023-08-31T17:05:15;3.93;;;3.20;;
14858;SDS011;7521;51.700;6.874;2023-08-31T17:08:20;4.70;;;3.37;;
14858;SDS011;7521;51.700;6.874;2023-08-31T17:11:26;4.60;;;3.10;;
14858;SDS011;7521;51.700;6.874;2023-08-31T17:14:32;6.63;;;3.63;;
14858;SDS011;7521;51.700;6.874;2023-08-31T17:17:37;4.30;;;2.70;;
14858;SDS011;7521;51.700;6.874;2023-08-31T17:20:43;4.73;;;3.03;;
14858;SDS011;7521;51.700;6.874;2023-08-31T17:23:48;3.67;;;2.58;;
14858;SDS011;7521;51.700;6.874;2023-08-31T17:26:53;4.80;;;3.17;;
14858;SDS011;7521;51.700;6.874;2023-08-31T17:29:58;3.05;;;2.75;;
14858;SDS011;7521;51.700;6.874;2023-08-31T17:33:03;5.93;;;3.42;;
14858;SDS011;7521;51.700;6.874;2023-08-31T17:36:09;5.70;;;3.20;;
14858;SDS011;7521;51.700;6.874;2023-08-31T17:39:14;4.10;;;3.20;;
14858;SDS011;7521;51.700;6.874;2023-08-31T17:42:19;3.43;;;2.90;;
14858;SDS011;7521;51.700;6.874;2023-08-31T17:45:24;3.50;;;2.67;;
14858;SDS011;7521;51.700;6.874;2023-08-31T17:48:29;7.28;;;3.15;;
14858;SDS011;7521;51.700;6.874;2023-08-31T17:51:37;3.80;;;2.63;;
14858;SDS011;7521;51.700;6.874;2023-08-31T17:54:43;3.17;;;2.80;;
14858;SDS011;7521;51.700;6.874;2023-08-31T17:57:48;3.20;;;2.57;;
14858;SDS011;7521;51.700;6.874;2023-08-31T18:00:55;4.20;;;2.77;;
14858;SDS011;7521;51.700;6.874;2023-08-31T18:04:00;7.83;;;2.83;;
14858;SDS011;7521;51.700;6.874;2023-08-31T18:07:08;6.80;;;3.23;;
14858;SDS011;7521;51.700;6.874;2023-08-31T18:10:13;4.18;;;2.92;;
14858;SDS011;7521;51.700;6.874;2023-08-31T18:13:18;5.00;;;3.10;;
14858;SDS011;7521;51.700;6.874;2023-08-31T18:16:24;3.47;;;2.53;;
14858;SDS011;7521;51.700;6.874;2023-08-31T18:19:29;3.88;;;3.47;;
14858;SDS011;7521;51.700;6.874;2023-08-31T18:22:39;4.37;;;3.10;;
14858;SDS011;7521;51.700;6.874;2023-08-31T18:25:45;4.13;;;3.00;;
14858;SDS011;7521;51.700;6.874;2023-08-31T18:28:51;4.97;;;3.43;;
14858;SDS011;7521;51.700;6.874;2023-08-31T18:31:56;5.97;;;3.20;;
14858;SDS011;7521;51.700;6.874;2023-08-31T18:35:04;4.07;;;3.55;;
14858;SDS011;7521;51.700;6.874;2023-08-31T18:38:10;5.30;;;3.20;;
14858;SDS011;7521;51.700;6.874;2023-08-31T18:41:15;4.43;;;3.30;;
14858;SDS011;7521;51.700;6.874;2023-08-31T18:44:20;5.93;;;3.33;;
14858;SDS011;7521;51.700;6.874;2023-08-31T18:47:27;4.40;;;3.20;;
14858;SDS011;7521;51.700;6.874;2023-08-31T18:50:32;5.50;;;3.47;;
14858;SDS011;7521;51.700;6.874;2023-08-31T18:53:38;7.90;;;3.92;;
14858;SDS011;7521;51.700;6.874;2023-08-31T18:56:43;4.78;;;3.42;;
14858;SDS011;7521;51.700;6.874;2023-08-31T18:59:48;7.95;;;4.45;;
14858;SDS011;7521;51.700;6.874;2023-08-31T19:02:53;5.25;;;4.00;;